createdAt,value
2022-11-17T00:00:44.538Z,20.50
2022-11-17T00:03:16.199Z,22.65
2022-11-17T00:06:03.085Z,10.48
2022-11-17T00:08:29.982Z,24.85
2022-11-17T00:11:02.106Z,15.27
2022-11-17T00:13:47.944Z,15.07
2022-11-17T00:16:16.888Z,19.00
2022-11-17T00:19:04.818Z,18.35
2022-11-17T00:21:32.046Z,17.10
2022-11-17T00:24:00.561Z,16.10
2022-11-17T00:26:33.055Z,17.05
2022-11-17T00:29:10.200Z,14.35
2022-11-17T00:31:56.911Z,17.23
2022-11-17T00:34:24.041Z,15.05
2022-11-17T00:36:54.528Z,11.90
2022-11-17T00:39:24.122Z,18.90
2022-11-17T00:41:51.351Z,20.77
2022-11-17T00:44:18.536Z,18.48
2022-11-17T00:46:46.300Z,20.08
2022-11-17T00:49:14.905Z,20.52
2022-11-17T00:51:42.297Z,18.48
2022-11-17T00:54:13.199Z,22.30
2022-11-17T00:56:42.319Z,13.63
2022-11-17T00:59:09.714Z,21.75
2022-11-17T01:01:40.042Z,22.20
2022-11-17T01:04:07.917Z,20.90
2022-11-17T01:06:40.838Z,10.82
2022-11-17T01:09:13.631Z,11.68
2022-11-17T01:11:41.670Z,17.13
2022-11-17T01:14:12.851Z,13.63
2022-11-17T01:16:40.055Z,15.32
2022-11-17T01:19:07.326Z,19.80
2022-11-17T01:21:34.501Z,18.65
2022-11-17T01:24:02.329Z,21.48
2022-11-17T01:26:34.781Z,11.65
2022-11-17T01:29:03.633Z,21.35
2022-11-17T01:31:36.197Z,22.33
2022-11-17T01:34:03.689Z,22.30
2022-11-17T01:36:51.474Z,17.58
2022-11-17T01:39:18.428Z,22.05
2022-11-17T01:41:45.757Z,24.02
2022-11-17T01:44:50.026Z,23.38
2022-11-17T01:47:35.253Z,11.05
2022-11-17T01:50:31.171Z,17.10
2022-11-17T01:53:02.250Z,21.38
2022-11-17T01:55:41.750Z,20.45
2022-11-17T01:58:30.400Z,21.48
2022-11-17T02:00:58.165Z,23.95
2022-11-17T02:03:27.244Z,25.50
2022-11-17T02:06:10.894Z,23.33
2022-11-17T02:08:40.413Z,21.90
2022-11-17T02:11:14.280Z,24.65
2022-11-17T02:13:41.636Z,13.85
2022-11-17T02:16:16.056Z,21.70
2022-11-17T02:18:44.495Z,23.23
2022-11-17T02:21:48.437Z,22.05
2022-11-17T02:24:27.170Z,22.27
2022-11-17T02:27:15.470Z,28.05
2022-11-17T02:29:56.761Z,12.15
2022-11-17T02:32:33.369Z,16.23
2022-11-17T02:35:17.144Z,22.02
2022-11-17T02:38:12.542Z,20.25
2022-11-17T02:40:48.433Z,15.90
2022-11-17T02:43:39.075Z,14.18
2022-11-17T02:46:09.477Z,25.38
2022-11-17T02:48:45.116Z,24.45
2022-11-17T02:51:22.808Z,25.08
2022-11-17T02:53:53.410Z,22.25
2022-11-17T02:56:20.249Z,17.13
2022-11-17T02:58:52.249Z,19.15
2022-11-17T03:01:24.761Z,25.50
2022-11-17T03:04:06.345Z,27.73
2022-11-17T03:06:48.940Z,30.63
2022-11-17T03:09:21.516Z,25.92
2022-11-17T03:12:06.396Z,22.85
2022-11-17T03:14:53.347Z,29.40
2022-11-17T03:17:30.855Z,26.70
2022-11-17T03:20:04.849Z,16.33
2022-11-17T03:22:41.839Z,24.88
2022-11-17T03:25:15.074Z,23.75
2022-11-17T03:27:47.291Z,23.90
2022-11-17T03:30:15.135Z,24.98
2022-11-17T03:32:47.171Z,25.75
2022-11-17T03:35:19.692Z,21.40
2022-11-17T03:37:53.632Z,21.65
2022-11-17T03:40:25.875Z,25.08
2022-11-17T03:42:57.728Z,22.92
2022-11-17T03:45:30.927Z,26.40
2022-11-17T03:48:08.804Z,25.67
2022-11-17T03:50:41.051Z,22.38
2022-11-17T03:53:08.160Z,16.88
2022-11-17T03:56:02.990Z,19.83
2022-11-17T03:58:34.165Z,18.75
2022-11-17T04:01:03.677Z,13.35
2022-11-17T04:03:34.818Z,18.58
2022-11-17T04:06:04.129Z,14.27
2022-11-17T04:08:31.910Z,16.67
2022-11-17T04:11:17.115Z,18.85
2022-11-17T04:14:02.592Z,13.07
2022-11-17T04:16:29.262Z,19.75
2022-11-17T04:18:58.889Z,14.45
2022-11-17T04:21:26.035Z,9.10
2022-11-17T04:23:52.800Z,18.60
2022-11-17T04:26:38.406Z,7.50
2022-11-17T04:29:05.046Z,18.45
2022-11-17T04:31:32.160Z,13.88
2022-11-17T04:34:04.239Z,16.73
2022-11-17T04:36:34.914Z,16.30
2022-11-17T04:39:01.930Z,21.52
2022-11-17T04:41:48.133Z,8.73
2022-11-17T04:44:16.937Z,17.63
2022-11-17T04:46:44.764Z,13.77
2022-11-17T04:49:13.767Z,13.98
2022-11-17T04:51:41.138Z,13.52
2022-11-17T04:54:09.416Z,14.70
2022-11-17T04:56:36.733Z,12.25
2022-11-17T04:59:04.299Z,18.25
2022-11-17T05:01:31.807Z,13.88
2022-11-17T05:04:01.410Z,19.10
2022-11-17T05:06:34.006Z,16.50
2022-11-17T05:09:03.780Z,13.07
2022-11-17T05:11:49.690Z,19.40
2022-11-17T05:14:21.076Z,12.48
2022-11-17T05:17:10.889Z,16.27
2022-11-17T05:19:40.770Z,15.80
2022-11-17T05:22:28.764Z,18.50
2022-11-17T05:24:56.712Z,18.52
2022-11-17T05:27:23.940Z,12.95
2022-11-17T05:29:50.686Z,15.82
2022-11-17T05:32:17.977Z,10.25
2022-11-17T05:34:44.585Z,11.75
2022-11-17T05:37:12.533Z,18.17
2022-11-17T05:39:39.184Z,22.95
2022-11-17T05:42:06.246Z,16.65
2022-11-17T05:44:32.888Z,11.80
2022-11-17T05:46:59.593Z,19.80
2022-11-17T05:49:26.548Z,20.65
2022-11-17T05:51:53.373Z,11.38
2022-11-17T05:54:20.632Z,14.07
2022-11-17T05:56:56.569Z,11.85
2022-11-17T05:59:43.963Z,17.13
2022-11-17T06:02:17.008Z,11.38
2022-11-17T06:04:44.446Z,22.30
2022-11-17T06:07:11.273Z,11.65
2022-11-17T06:09:41.795Z,20.98
2022-11-17T06:12:10.228Z,22.92
2022-11-17T06:14:39.268Z,21.92
2022-11-17T06:17:23.308Z,11.57
2022-11-17T06:19:58.278Z,13.85
2022-11-17T06:22:26.873Z,21.60
2022-11-17T06:24:54.523Z,18.60
2022-11-17T06:27:21.384Z,18.67
2022-11-17T06:29:49.468Z,13.48
2022-11-17T06:32:19.028Z,20.92
2022-11-17T06:34:53.833Z,11.18
2022-11-17T06:37:22.644Z,15.10
2022-11-17T06:39:49.392Z,17.77
2022-11-17T06:42:16.152Z,13.52
2022-11-17T06:44:43.331Z,18.60
2022-11-17T06:47:12.449Z,11.30
2022-11-17T06:49:39.266Z,15.48
2022-11-17T06:52:05.892Z,8.70
2022-11-17T06:54:32.532Z,9.25
2022-11-17T06:57:00.569Z,11.43
2022-11-17T06:59:27.164Z,14.40
2022-11-17T07:01:54.932Z,13.90
2022-11-17T07:04:21.535Z,13.68
2022-11-17T07:06:48.227Z,15.38
2022-11-17T07:09:14.868Z,17.67
2022-11-17T07:11:42.452Z,16.02
2022-11-17T07:14:09.065Z,12.88
2022-11-17T07:16:35.721Z,11.60
2022-11-17T07:19:03.909Z,8.45
2022-11-17T07:21:30.596Z,14.50
2022-11-17T07:23:57.947Z,18.33
2022-11-17T07:26:24.542Z,16.27
2022-11-17T07:28:51.554Z,9.73
2022-11-17T07:31:18.202Z,12.55
2022-11-17T07:33:44.832Z,15.25
2022-11-17T07:36:14.674Z,10.00
2022-11-17T07:38:41.595Z,14.23
2022-11-17T07:41:10.254Z,11.00
2022-11-17T07:43:36.992Z,10.05
2022-11-17T07:46:14.474Z,14.75
2022-11-17T07:48:43.092Z,18.70
2022-11-17T07:51:10.136Z,18.77
2022-11-17T07:53:36.904Z,8.90
2022-11-17T07:56:08.842Z,15.35
2022-11-17T07:58:36.375Z,13.35
2022-11-17T08:01:07.887Z,11.85
2022-11-17T08:03:34.667Z,12.82
2022-11-17T08:06:03.055Z,10.52
2022-11-17T08:08:31.306Z,12.98
2022-11-17T08:11:02.823Z,14.50
2022-11-17T08:13:29.497Z,6.68
2022-11-17T08:15:57.385Z,13.43
2022-11-17T08:18:24.375Z,13.35
2022-11-17T08:20:51.040Z,9.77
2022-11-17T08:23:23.440Z,10.95
2022-11-17T08:25:50.381Z,10.52
2022-11-17T08:28:17.033Z,8.48
2022-11-17T08:30:44.713Z,12.40
2022-11-17T08:33:11.367Z,11.52
2022-11-17T08:35:38.293Z,8.77
2022-11-17T08:38:05.283Z,12.98
2022-11-17T08:40:31.913Z,9.07
2022-11-17T08:43:01.414Z,9.85
2022-11-17T08:45:28.616Z,12.95
2022-11-17T08:47:57.105Z,12.80
2022-11-17T08:50:23.890Z,14.27
2022-11-17T08:52:52.235Z,10.98
2022-11-17T08:55:19.155Z,14.88
2022-11-17T08:57:48.778Z,13.07
2022-11-17T09:00:16.521Z,12.90
2022-11-17T09:02:43.154Z,12.52
2022-11-17T09:05:09.794Z,10.05
2022-11-17T09:07:36.534Z,23.10
2022-11-17T09:10:05.352Z,11.10
2022-11-17T09:12:32.493Z,10.70
2022-11-17T09:14:59.149Z,6.15
2022-11-17T09:17:25.903Z,12.80
2022-11-17T09:19:53.976Z,12.27
2022-11-17T09:22:21.306Z,10.75
2022-11-17T09:24:49.230Z,14.27
2022-11-17T09:27:15.941Z,17.55
2022-11-17T09:29:42.542Z,13.90
2022-11-17T09:32:09.707Z,13.98
2022-11-17T09:34:36.430Z,14.50
2022-11-17T09:37:03.088Z,16.50
2022-11-17T09:39:29.674Z,9.60
2022-11-17T09:41:57.539Z,12.10
2022-11-17T09:44:45.940Z,11.27
2022-11-17T09:47:38.466Z,10.77
2022-11-17T09:50:43.672Z,7.65
2022-11-17T09:53:22.738Z,10.55
2022-11-17T09:55:56.098Z,11.23
2022-11-17T09:58:25.490Z,9.57
2022-11-17T10:00:53.917Z,9.20
2022-11-17T10:03:22.243Z,11.07
2022-11-17T10:05:49.609Z,8.63
2022-11-17T10:08:54.799Z,11.63
2022-11-17T10:11:33.827Z,7.85
2022-11-17T10:14:12.108Z,10.07
2022-11-17T10:16:42.124Z,6.95
2022-11-17T10:19:24.387Z,9.02
2022-11-17T10:22:07.194Z,9.73
2022-11-17T10:24:48.148Z,9.77
2022-11-17T10:27:22.451Z,6.68
2022-11-17T10:29:59.444Z,13.18
2022-11-17T10:32:30.955Z,9.98
2022-11-17T10:35:14.422Z,10.18
2022-11-17T10:37:51.778Z,9.77
2022-11-17T10:40:25.914Z,10.50
2022-11-17T10:43:35.318Z,7.68
2022-11-17T10:46:12.801Z,7.70
2022-11-17T10:48:40.900Z,8.57
2022-11-17T10:51:23.339Z,6.05
2022-11-17T10:54:06.964Z,6.95
2022-11-17T10:56:41.582Z,8.07
2022-11-17T10:59:08.247Z,8.20
2022-11-17T11:01:37.606Z,9.20
2022-11-17T11:04:07.646Z,8.25
2022-11-17T11:06:35.667Z,7.97
2022-11-17T11:09:10.429Z,5.93
2022-11-17T11:11:47.474Z,6.63
2022-11-17T11:14:29.125Z,5.93
2022-11-17T11:16:57.401Z,5.13
2022-11-17T11:19:24.196Z,9.63
2022-11-17T11:22:21.796Z,7.28
2022-11-17T11:25:33.248Z,5.20
2022-11-17T11:28:32.447Z,6.30
2022-11-17T11:31:24.407Z,11.15
2022-11-17T11:34:19.015Z,5.68
2022-11-17T11:36:57.006Z,6.72
2022-11-17T11:39:32.914Z,6.63
2022-11-17T11:42:14.530Z,10.38
2022-11-17T11:44:59.971Z,6.85
2022-11-17T11:47:33.884Z,7.75
2022-11-17T11:50:09.469Z,9.95
2022-11-17T11:52:41.499Z,9.05
2022-11-17T11:55:22.942Z,6.68
2022-11-17T11:57:56.848Z,8.00
2022-11-17T12:00:23.629Z,5.00
2022-11-17T12:03:05.216Z,6.80
2022-11-17T12:05:53.189Z,5.82
2022-11-17T12:08:49.856Z,6.38
2022-11-17T12:11:35.688Z,5.82
2022-11-17T12:14:06.152Z,5.10
2022-11-17T12:16:36.976Z,7.00
2022-11-17T12:20:09.365Z,6.43
2022-11-17T12:22:38.354Z,6.47
2022-11-17T12:25:29.188Z,7.40
2022-11-17T12:27:56.715Z,6.13
2022-11-17T12:30:29.188Z,8.13
2022-11-17T12:33:08.391Z,7.13
2022-11-17T12:35:37.336Z,7.75
2022-11-17T12:38:16.587Z,5.95
2022-11-17T13:31:05.996Z,5.95
2022-11-17T13:39:27.506Z,8.75
2022-11-17T13:41:56.042Z,8.32
2022-11-17T13:44:25.497Z,8.13
2022-11-17T13:46:52.384Z,8.20
2022-11-17T13:49:39.893Z,5.40
2022-11-17T13:52:34.604Z,6.93
2022-11-17T13:55:10.618Z,8.68
2022-11-17T13:57:37.601Z,7.05
2022-11-17T14:00:04.959Z,6.10
2022-11-17T14:02:31.897Z,7.82
2022-11-17T14:05:23.266Z,7.25
2022-11-17T14:07:51.154Z,4.50
2022-11-17T14:10:34.097Z,5.82
2022-11-17T14:13:01.746Z,9.35
2022-11-17T14:15:35.171Z,6.25
2022-11-17T14:18:15.489Z,6.95
2022-11-17T14:20:42.509Z,9.82
2022-11-17T14:23:09.140Z,10.70
2022-11-17T14:25:39.328Z,9.07
2022-11-17T14:28:14.604Z,9.38
2022-11-17T14:30:41.383Z,13.13
2022-11-17T14:33:13.360Z,8.55
2022-11-17T14:35:41.063Z,10.35
2022-11-17T15:08:16.997Z,5.30
2022-11-17T15:10:56.651Z,7.95
2022-11-17T15:13:23.252Z,9.80
2022-11-17T15:15:49.871Z,12.32
2022-11-17T15:18:16.412Z,12.30
2022-11-17T15:20:44.841Z,9.30
2022-11-17T15:23:12.549Z,7.50
2022-11-17T15:25:39.301Z,8.23
2022-11-17T15:28:07.369Z,14.48
2022-11-17T15:30:33.973Z,9.82
2022-11-17T15:33:01.717Z,9.88
2022-11-17T15:35:32.847Z,11.95
2022-11-17T15:37:59.452Z,9.73
2022-11-17T15:40:26.128Z,11.40
2022-11-17T15:42:53.823Z,10.40
2022-11-17T15:45:20.427Z,9.82
2022-11-17T15:47:47.087Z,9.73
2022-11-17T15:50:13.744Z,6.60
2022-11-17T15:53:03.154Z,6.72
2022-11-17T15:55:30.194Z,8.60
2022-11-17T15:57:56.804Z,8.63
2022-11-17T16:00:23.410Z,9.98
2022-11-17T16:02:53.234Z,9.93
2022-11-17T16:05:23.959Z,8.60
2022-11-17T16:07:50.597Z,9.77
2022-11-17T16:10:17.482Z,8.88
2022-11-17T16:12:44.248Z,9.73
2022-11-17T16:15:11.028Z,13.63
2022-11-17T16:17:37.791Z,12.07
2022-11-17T16:20:04.836Z,8.80
2022-11-17T16:22:31.518Z,9.55
2022-11-17T16:24:58.194Z,10.60
2022-11-17T16:27:24.922Z,11.23
2022-11-17T16:29:51.613Z,6.30
2022-11-17T16:32:18.184Z,11.10
2022-11-17T16:34:49.141Z,8.75
2022-11-17T16:37:16.298Z,7.90
2022-11-17T16:39:46.929Z,12.45
2022-11-17T16:42:13.593Z,12.02
2022-11-17T16:44:40.364Z,11.70
2022-11-17T16:47:07.191Z,13.52
2022-11-17T16:49:35.937Z,8.80
2022-11-17T16:52:02.648Z,14.20
2022-11-17T16:54:31.950Z,12.20
2022-11-17T16:56:58.731Z,12.30
2022-11-17T17:08:01.703Z,15.18
2022-11-17T17:10:28.361Z,12.05
2022-11-17T17:13:03.242Z,17.02
2022-11-17T17:15:30.999Z,13.38
2022-11-17T17:18:00.044Z,13.98
2022-11-17T17:20:26.879Z,13.88
2022-11-17T17:22:56.856Z,7.05
2022-11-17T17:25:27.739Z,13.43
2022-11-17T17:27:54.921Z,11.43
2022-11-17T17:30:23.015Z,14.38
2022-11-17T17:32:49.561Z,14.65
2022-11-17T17:35:17.607Z,12.55
2022-11-17T17:37:45.830Z,12.65
2022-11-17T17:40:12.487Z,12.55
2022-11-17T17:42:42.334Z,11.82
2022-11-17T17:45:14.592Z,15.63
2022-11-17T17:47:42.362Z,13.60
2022-11-17T17:50:09.423Z,14.52
2022-11-17T17:52:36.240Z,9.77
2022-11-17T17:55:04.382Z,14.45
2022-11-17T17:57:33.896Z,11.27
2022-11-17T18:00:01.363Z,12.57
2022-11-17T18:02:37.688Z,13.10
2022-11-17T18:05:04.754Z,12.93
2022-11-17T18:07:31.486Z,20.33
2022-11-17T18:09:58.181Z,12.30
2022-11-17T18:12:25.289Z,10.48
2022-11-17T18:14:52.095Z,14.07
2022-11-17T18:17:19.658Z,17.10
2022-11-17T18:19:49.769Z,13.30
2022-11-17T18:22:17.160Z,12.18
2022-11-17T18:24:43.790Z,14.15
2022-11-17T18:27:10.632Z,12.32
2022-11-17T18:29:37.260Z,13.60
2022-11-17T18:32:04.118Z,14.18
2022-11-17T18:34:30.755Z,13.30
2022-11-17T18:36:57.351Z,10.93
2022-11-17T18:39:24.641Z,8.13
2022-11-17T18:41:51.282Z,9.55
2022-11-17T18:44:21.394Z,12.98
2022-11-17T18:46:48.339Z,9.45
2022-11-17T18:49:15.384Z,11.90
2022-11-17T18:51:42.363Z,11.00
2022-11-17T18:54:11.523Z,11.70
2022-11-17T18:56:38.511Z,10.18
2022-11-17T18:59:11.583Z,10.95
2022-11-17T19:01:40.799Z,10.82
2022-11-17T19:04:07.627Z,8.73
2022-11-17T19:06:34.695Z,8.70
2022-11-17T19:09:01.529Z,8.35
2022-11-17T19:11:30.875Z,7.88
2022-11-17T19:13:58.835Z,11.75
2022-11-17T19:16:26.888Z,11.70
2022-11-17T19:18:55.603Z,6.55
2022-11-17T19:21:26.015Z,15.60
2022-11-17T19:23:54.619Z,12.40
2022-11-17T19:26:29.149Z,13.25
2022-11-17T19:29:03.091Z,9.90
2022-11-17T19:31:30.251Z,12.00
2022-11-17T19:33:57.952Z,10.27
2022-11-17T19:36:27.651Z,12.18
2022-11-17T19:38:56.252Z,12.88
2022-11-17T19:41:35.183Z,10.43
2022-11-17T19:44:05.110Z,13.60
2022-11-17T19:46:34.472Z,6.78
2022-11-17T19:49:01.567Z,14.32
2022-11-17T19:51:31.979Z,13.93
2022-11-17T19:54:02.075Z,8.15
2022-11-17T19:56:29.300Z,11.52
2022-11-17T19:58:59.212Z,11.25
2022-11-17T20:01:29.540Z,12.57
2022-11-17T20:03:58.270Z,18.52
2022-11-17T20:06:28.717Z,11.68
2022-11-17T20:08:57.570Z,8.27
2022-11-17T20:11:27.005Z,11.80
2022-11-17T20:13:55.278Z,12.93
2022-11-17T20:16:27.123Z,13.82
2022-11-17T20:18:56.243Z,12.57
2022-11-17T20:21:24.208Z,13.95
2022-11-17T20:23:51.360Z,14.90
2022-11-17T20:26:20.936Z,14.35
2022-11-17T20:28:48.386Z,6.63
2022-11-17T20:31:19.461Z,12.70
2022-11-17T20:33:49.418Z,15.18
2022-11-17T20:36:18.899Z,13.07
2022-11-17T20:41:28.830Z,11.48
2022-11-17T20:44:00.015Z,14.75
2022-11-17T20:46:29.908Z,14.88
2022-11-17T20:48:56.671Z,9.27
2022-11-17T20:56:46.936Z,10.13
2022-11-17T20:59:20.013Z,13.95
2022-11-17T21:01:53.186Z,11.63
2022-11-17T21:04:21.966Z,12.32
2022-11-17T21:06:48.795Z,18.42
2022-11-17T21:09:16.124Z,12.52
2022-11-17T21:12:07.243Z,14.32
2022-11-17T21:14:42.340Z,14.20
2022-11-17T21:17:31.337Z,14.27
2022-11-17T21:19:58.494Z,17.63
2022-11-17T21:22:25.465Z,14.65
2022-11-17T21:24:52.210Z,13.77
2022-11-17T21:27:24.398Z,14.93
2022-11-17T21:29:53.490Z,14.45
2022-11-17T21:32:20.680Z,19.70
2022-11-17T21:34:49.891Z,8.55
2022-11-17T21:37:16.783Z,12.93
2022-11-17T21:39:45.830Z,12.45
2022-11-17T21:42:17.978Z,17.98
2022-11-17T21:44:47.807Z,8.23
2022-11-17T21:47:16.181Z,15.95
2022-11-17T21:49:44.689Z,12.63
2022-11-17T21:52:11.643Z,8.68
2022-11-17T21:54:38.346Z,16.58
2022-11-17T21:57:05.115Z,13.60
2022-11-17T21:59:32.042Z,10.25
2022-11-17T22:02:00.473Z,12.52
2022-11-17T22:04:27.832Z,11.20
2022-11-17T22:07:07.547Z,13.88
2022-11-17T22:09:36.229Z,17.67
2022-11-17T22:12:06.777Z,18.00
2022-11-17T22:14:38.305Z,14.32
2022-11-17T22:17:05.000Z,13.50
2022-11-17T22:19:34.988Z,9.82
2022-11-17T22:22:02.038Z,10.63
2022-11-17T22:24:30.293Z,16.73
2022-11-17T22:26:58.911Z,13.02
2022-11-17T22:29:29.478Z,14.13
2022-11-17T22:31:56.264Z,12.55
2022-11-17T22:34:23.056Z,16.23
2022-11-17T22:36:49.873Z,13.98
2022-11-17T22:39:17.065Z,14.98
2022-11-17T22:41:43.917Z,17.30
2022-11-17T22:44:17.789Z,13.10
2022-11-17T22:46:46.276Z,7.80
2022-11-17T22:49:13.684Z,13.77
2022-11-17T22:51:59.347Z,13.07
2022-11-17T22:57:10.364Z,10.18
2022-11-17T22:59:45.143Z,17.40
2022-11-17T23:02:12.072Z,12.50
2022-11-17T23:04:40.137Z,13.55
2022-11-17T23:07:08.062Z,6.13
2022-11-17T23:09:36.131Z,12.00
2022-11-17T23:12:05.016Z,12.63
2022-11-17T23:14:31.633Z,15.05
2022-11-17T23:16:58.285Z,16.27
2022-11-17T23:19:25.154Z,16.23
2022-11-17T23:21:54.991Z,11.63
2022-11-17T23:24:21.812Z,15.43
2022-11-17T23:26:48.717Z,16.23
2022-11-17T23:29:15.933Z,12.25
2022-11-17T23:31:44.695Z,10.85
2022-11-17T23:34:11.541Z,9.43
2022-11-17T23:36:38.535Z,11.88
2022-11-17T23:39:05.580Z,16.42
2022-11-17T23:41:34.199Z,13.75
2022-11-17T23:44:01.574Z,12.32
2022-11-17T23:46:30.031Z,15.55
2022-11-17T23:48:57.758Z,12.88
2022-11-17T23:51:27.447Z,13.73
2022-11-17T23:53:56.722Z,10.73
2022-11-17T23:56:25.462Z,12.70
2022-11-17T23:58:53.412Z,10.05
